Terminal Aerodrome Forecast
Issued by NWS

Home | Current Version | Previous Version | Text Only | Print | Product List | Glossary On
Versions: 1 2 3 4 5 6 7 8 9 10 11 12 13 14 15 16 17
000
FTUS43 KDMX 231733
TAFMCW
TAF
KMCW 231733Z 2318/2418 14018G26KT P6SM VCSH SCT060 OVC080
     FM240600 12018G28KT P6SM TSRA SCT020CB OVC060
     FM240800 12019G28KT 5SM TSRA SCT008 BKN010CB OVC020
     FM241400 15012G18KT 5SM SHRA SCT008 OVC015=

USA.gov is the U.S. government's official web portal to all federal, state and local government web resources and services.